createdAt,value
2023-03-01T00:01:27.922Z,99.90
2023-03-01T00:03:56.899Z,99.90
2023-03-01T00:06:25.339Z,99.90
2023-03-01T00:08:53.848Z,99.90
2023-03-01T00:11:24.260Z,99.90
2023-03-01T00:13:54.675Z,99.90
2023-03-01T00:16:26.508Z,99.90
2023-03-01T00:18:55.917Z,99.90
2023-03-01T00:21:25.216Z,99.90
2023-03-01T00:23:53.982Z,99.90
2023-03-01T00:26:24.393Z,99.90
2023-03-01T00:28:52.998Z,99.90
2023-03-01T00:31:23.349Z,99.90
2023-03-01T00:33:54.634Z,99.90
2023-03-01T00:36:22.975Z,99.90
2023-03-01T00:38:51.492Z,99.90
2023-03-01T00:41:20.846Z,99.90
2023-03-01T00:43:48.920Z,99.90
2023-03-01T00:46:18.843Z,99.90
2023-03-01T00:48:47.315Z,99.90
2023-03-01T00:51:18.229Z,99.90
2023-03-01T00:53:47.533Z,99.90
2023-03-01T00:56:16.784Z,99.90
2023-03-01T00:58:45.054Z,99.90
2023-03-01T01:01:19.303Z,99.90
2023-03-01T01:03:52.857Z,99.90
2023-03-01T01:06:24.897Z,99.90
2023-03-01T01:08:54.215Z,99.90
2023-03-01T01:11:24.024Z,99.90
2023-03-01T01:13:53.375Z,99.90
2023-03-01T01:16:22.886Z,99.90
2023-03-01T01:18:51.854Z,99.90
2023-03-01T01:21:23.831Z,99.90
2023-03-01T01:23:52.656Z,99.90
2023-03-01T01:26:22.683Z,99.90
2023-03-01T01:28:51.058Z,99.90
2023-03-01T01:31:19.833Z,99.90
2023-03-01T01:33:48.471Z,99.90
2023-03-01T01:36:16.578Z,99.90
2023-03-01T01:38:46.132Z,99.90
2023-03-01T01:41:15.114Z,99.90
2023-03-01T01:43:45.541Z,99.90
2023-03-01T01:46:24.149Z,99.90
2023-03-01T01:48:56.091Z,99.90
2023-03-01T01:51:28.005Z,99.90
2023-03-01T01:54:02.661Z,99.90
2023-03-01T01:56:32.355Z,99.90
2023-03-01T01:59:00.849Z,99.90
2023-03-01T02:01:29.157Z,99.90
2023-03-01T02:03:57.672Z,99.90
2023-03-01T02:06:30.872Z,99.90
2023-03-01T02:09:04.842Z,99.90
2023-03-01T02:11:34.960Z,99.90
2023-03-01T02:14:03.055Z,99.90
2023-03-01T02:16:32.598Z,99.90
2023-03-01T02:19:01.628Z,99.90
2023-03-01T02:21:40.577Z,99.90
2023-03-01T02:24:20.391Z,99.90
2023-03-01T02:26:54.553Z,99.90
2023-03-01T02:29:24.585Z,99.90
2023-03-01T02:31:53.925Z,99.90
2023-03-01T02:34:27.158Z,99.90
2023-03-01T02:36:59.444Z,99.90
2023-03-01T02:39:30.222Z,99.90
2023-03-01T02:42:00.020Z,99.90
2023-03-01T02:44:29.655Z,99.90
2023-03-01T02:47:00.477Z,99.90
2023-03-01T02:49:31.507Z,99.90
2023-03-01T02:52:30.546Z,99.90
2023-03-01T02:55:02.922Z,99.90
2023-03-01T02:57:33.567Z,99.90
2023-03-01T03:00:08.134Z,99.90
2023-03-01T03:02:40.271Z,99.90
2023-03-01T03:05:11.725Z,99.90
2023-03-01T03:07:41.751Z,99.90
2023-03-01T03:10:13.809Z,99.90
2023-03-01T03:12:42.796Z,99.90
2023-03-01T03:15:13.801Z,99.90
2023-03-01T03:17:45.369Z,99.90
2023-03-01T03:20:20.109Z,99.90
2023-03-01T03:22:50.098Z,99.90
2023-03-01T03:25:18.922Z,99.90
2023-03-01T03:27:48.705Z,99.90
2023-03-01T03:30:22.620Z,99.90
2023-03-01T03:32:53.918Z,99.90
2023-03-01T03:35:23.962Z,99.90
2023-03-01T03:38:04.019Z,99.90
2023-03-01T03:40:34.736Z,99.90
2023-03-01T03:43:03.556Z,99.90
2023-03-01T03:45:34.528Z,99.90
2023-03-01T03:48:03.469Z,99.90
2023-03-01T03:50:31.780Z,99.90
2023-03-01T03:53:00.159Z,99.90
2023-03-01T03:55:31.631Z,99.90
2023-03-01T03:58:03.247Z,99.90
2023-03-01T04:00:32.747Z,99.90
2023-03-01T04:03:01.769Z,99.90
2023-03-01T04:05:30.370Z,99.90
2023-03-01T04:08:07.947Z,99.90
2023-03-01T04:10:39.096Z,99.90
2023-03-01T04:13:07.850Z,99.90
2023-03-01T04:15:38.604Z,99.90
2023-03-01T04:18:07.388Z,99.90
2023-03-01T04:20:37.488Z,99.90
2023-03-01T04:23:14.595Z,99.90
2023-03-01T04:25:44.843Z,99.90
2023-03-01T04:28:13.268Z,99.90
2023-03-01T04:30:42.772Z,99.90
2023-03-01T04:33:12.908Z,99.90
2023-03-01T04:35:41.641Z,99.90
2023-03-01T04:38:10.684Z,99.90
2023-03-01T04:40:39.133Z,99.90
2023-03-01T04:43:07.418Z,99.90
2023-03-01T04:45:36.719Z,99.90
2023-03-01T04:48:06.774Z,99.90
2023-03-01T04:50:35.140Z,99.90
2023-03-01T04:53:03.458Z,99.90
2023-03-01T04:55:32.569Z,99.90
2023-03-01T04:58:01.051Z,99.90
2023-03-01T05:00:29.148Z,99.90
2023-03-01T05:02:59.002Z,99.90
2023-03-01T05:05:32.757Z,99.90
2023-03-01T05:08:02.594Z,99.90
2023-03-01T05:10:32.555Z,99.90
2023-03-01T05:13:01.814Z,99.90
2023-03-01T05:15:32.563Z,99.90
2023-03-01T05:18:02.367Z,99.90
2023-03-01T05:20:32.539Z,99.90
2023-03-01T05:23:06.302Z,99.90
2023-03-01T05:25:36.023Z,99.90
2023-03-01T05:28:05.584Z,99.90
2023-03-01T05:30:34.281Z,99.90
2023-03-01T05:33:03.254Z,99.90
2023-03-01T05:35:35.161Z,99.90
2023-03-01T05:38:03.257Z,99.90
2023-03-01T05:40:31.431Z,99.90
2023-03-01T05:42:59.599Z,99.90
2023-03-01T05:45:29.025Z,99.90
2023-03-01T05:47:57.295Z,99.90
2023-03-01T05:50:28.254Z,99.90
2023-03-01T05:53:02.627Z,99.90
2023-03-01T05:55:32.060Z,99.90
2023-03-01T05:58:01.188Z,99.90
2023-03-01T06:00:30.164Z,99.90
2023-03-01T06:02:59.477Z,99.90
2023-03-01T06:05:28.374Z,99.90
2023-03-01T06:07:56.942Z,99.90
2023-03-01T06:10:26.491Z,99.90
2023-03-01T06:12:55.281Z,99.90
2023-03-01T06:15:23.898Z,99.90
2023-03-01T06:17:52.523Z,99.90
2023-03-01T06:20:23.016Z,99.90
2023-03-01T06:22:51.782Z,99.90
2023-03-01T06:25:22.899Z,99.90
2023-03-01T06:27:53.293Z,99.90
2023-03-01T06:30:22.909Z,99.90
2023-03-01T06:32:51.387Z,99.90
2023-03-01T06:35:21.210Z,99.90
2023-03-01T06:37:50.260Z,99.90
2023-03-01T06:40:18.647Z,99.90
2023-03-01T06:42:52.399Z,99.90
2023-03-01T06:45:22.034Z,99.90
2023-03-01T06:47:50.430Z,99.90
2023-03-01T06:50:20.147Z,99.90
2023-03-01T06:55:16.686Z,99.90
2023-03-01T06:57:44.796Z,99.90
2023-03-01T07:00:16.632Z,99.90
2023-03-01T07:02:45.058Z,99.90
2023-03-01T07:05:13.181Z,99.90
2023-03-01T07:07:41.270Z,99.90
2023-03-01T07:10:10.905Z,99.90
2023-03-01T07:12:39.093Z,99.90
2023-03-01T07:15:10.465Z,99.90
2023-03-01T07:17:40.140Z,99.90
2023-03-01T07:20:08.848Z,99.90
2023-03-01T07:22:37.077Z,99.90
2023-03-01T07:25:05.468Z,99.90
2023-03-01T07:27:33.496Z,99.90
2023-03-01T07:30:01.495Z,99.90
2023-03-01T07:32:29.644Z,99.90
2023-03-01T07:34:59.253Z,99.90
2023-03-01T07:37:27.367Z,99.90
2023-03-01T07:39:55.766Z,99.90
2023-03-01T07:42:24.212Z,99.90
2023-03-01T07:44:52.433Z,99.90
2023-03-01T07:47:20.634Z,99.90
2023-03-01T07:49:49.048Z,99.90
2023-03-01T07:52:18.525Z,99.90
2023-03-01T07:54:46.667Z,99.90
2023-03-01T07:57:14.941Z,99.90
2023-03-01T07:59:42.993Z,99.90
2023-03-01T08:02:11.711Z,99.90
2023-03-01T08:04:40.068Z,99.90
2023-03-01T08:07:08.445Z,99.90
2023-03-01T08:09:38.820Z,99.90
2023-03-01T08:12:08.032Z,99.90
2023-03-01T08:14:36.272Z,99.90
2023-03-01T08:17:05.102Z,99.90
2023-03-01T08:19:34.224Z,99.90
2023-03-01T08:22:03.071Z,99.90
2023-03-01T08:24:31.285Z,99.90
2023-03-01T08:27:00.823Z,99.90
2023-03-01T08:29:29.235Z,99.90
2023-03-01T08:31:57.392Z,99.90
2023-03-01T08:34:25.554Z,99.90
2023-03-01T08:36:53.968Z,99.90
2023-03-01T08:39:23.826Z,99.90
2023-03-01T08:41:52.158Z,99.90
2023-03-01T08:44:22.068Z,99.90
2023-03-01T08:46:51.042Z,99.90
2023-03-01T08:49:20.891Z,99.90
2023-03-01T08:51:49.685Z,99.90
2023-03-01T08:54:20.202Z,99.90
2023-03-01T08:56:48.964Z,99.90
2023-03-01T08:59:20.365Z,99.90
2023-03-01T09:01:49.890Z,99.90
2023-03-01T09:04:18.203Z,99.90
2023-03-01T09:06:46.324Z,99.90
2023-03-01T09:09:17.477Z,99.90
2023-03-01T09:11:47.281Z,99.90
2023-03-01T09:14:16.031Z,99.90
2023-03-01T09:16:44.552Z,99.90
2023-03-01T09:19:14.381Z,99.90
2023-03-01T09:21:42.898Z,99.90
2023-03-01T09:24:16.848Z,99.90
2023-03-01T09:26:48.101Z,99.90
2023-03-01T09:29:17.618Z,99.90
2023-03-01T09:31:45.707Z,99.90
2023-03-01T09:34:17.144Z,99.90
2023-03-01T09:36:45.244Z,99.90
2023-03-01T09:39:13.331Z,99.90
2023-03-01T09:41:48.669Z,99.90
2023-03-01T09:44:35.088Z,99.90
2023-03-01T09:47:04.074Z,99.90
2023-03-01T09:49:37.177Z,99.90
2023-03-01T09:52:14.663Z,99.90
2023-03-01T09:54:42.786Z,99.90
2023-03-01T09:57:22.524Z,99.90
2023-03-01T10:00:32.394Z,99.90
2023-03-01T10:03:05.894Z,99.90
2023-03-01T10:05:53.416Z,99.90
2023-03-01T10:08:34.499Z,99.90
2023-03-01T10:11:02.963Z,99.90
2023-03-01T10:13:41.346Z,99.90
2023-03-01T10:16:15.572Z,99.90
2023-03-01T10:18:45.096Z,99.90
2023-03-01T10:21:18.898Z,99.90
2023-03-01T10:23:47.697Z,99.90
2023-03-01T10:26:37.489Z,99.90
2023-03-01T10:29:08.869Z,99.90
2023-03-01T10:31:44.131Z,99.90
2023-03-01T10:34:17.431Z,99.90
2023-03-01T10:36:50.367Z,99.90
2023-03-01T10:39:21.028Z,99.90
2023-03-01T10:41:59.140Z,99.90
2023-03-01T10:44:45.209Z,99.90
2023-03-01T10:47:25.764Z,99.90
2023-03-01T10:49:59.376Z,99.90
2023-03-01T10:52:32.378Z,99.90
2023-03-01T10:55:03.041Z,99.90
2023-03-01T10:57:40.028Z,99.90
2023-03-01T11:00:25.871Z,99.90
2023-03-01T11:03:12.435Z,99.90
2023-03-01T11:05:53.854Z,99.90
2023-03-01T11:08:43.669Z,99.90
2023-03-01T11:11:32.450Z,99.90
2023-03-01T11:14:03.166Z,99.90
2023-03-01T11:16:38.744Z,99.90
2023-03-01T11:19:20.947Z,99.90
2023-03-01T11:22:05.276Z,99.90
2023-03-01T11:24:42.336Z,99.90
2023-03-01T11:27:19.480Z,99.90
2023-03-01T11:29:52.181Z,99.90
2023-03-01T11:32:23.301Z,99.90
2023-03-01T11:34:56.802Z,99.90
2023-03-01T11:37:34.458Z,99.90
2023-03-01T11:40:13.079Z,99.90
2023-03-01T11:42:57.996Z,99.90
2023-03-01T11:45:29.181Z,99.90
2023-03-01T11:48:16.026Z,99.90
2023-03-01T11:50:48.502Z,99.90
2023-03-01T11:53:30.989Z,99.90
2023-03-01T11:56:14.136Z,99.90
2023-03-01T11:59:20.964Z,99.90
2023-03-01T12:02:09.137Z,99.90
2023-03-01T12:05:01.753Z,99.90
2023-03-01T12:07:41.079Z,99.90
2023-03-01T12:10:25.480Z,99.90
2023-03-01T12:13:22.216Z,99.90
2023-03-01T12:16:04.024Z,99.90
2023-03-01T12:18:56.729Z,99.90
2023-03-01T12:21:40.092Z,99.90
2023-03-01T12:24:50.079Z,99.90
2023-03-01T12:27:34.816Z,99.90
2023-03-01T12:30:19.137Z,99.90
2023-03-01T12:33:03.374Z,99.90
2023-03-01T12:35:47.495Z,99.90
2023-03-01T12:38:32.067Z,99.90
2023-03-01T12:41:18.112Z,99.90
2023-03-01T12:43:58.697Z,99.90
2023-03-01T12:46:46.653Z,99.90
2023-03-01T12:49:18.418Z,99.90
2023-03-01T12:51:53.458Z,99.90
2023-03-01T12:54:27.988Z,99.90
2023-03-01T12:56:57.315Z,99.90
2023-03-01T12:59:32.038Z,99.90
2023-03-01T13:02:07.781Z,99.90
2023-03-01T13:04:52.518Z,99.90
2023-03-01T13:07:29.874Z,99.90
2023-03-01T13:10:13.215Z,99.90
2023-03-01T13:12:52.178Z,99.90
2023-03-01T13:15:28.835Z,99.90
2023-03-01T13:17:59.876Z,99.90
2023-03-01T13:20:32.612Z,99.90
2023-03-01T13:23:13.429Z,99.90
2023-03-01T13:26:03.771Z,99.50
2023-03-01T13:28:43.001Z,99.10
2023-03-01T13:31:12.895Z,98.70
2023-03-01T13:33:47.996Z,98.60
2023-03-01T13:36:51.854Z,98.00
2023-03-01T13:39:33.543Z,98.00
2023-03-01T13:42:02.113Z,97.80
2023-03-01T13:44:34.704Z,97.60
2023-03-01T13:47:16.517Z,97.70
2023-03-01T13:49:51.115Z,97.60
2023-03-01T13:52:40.347Z,97.40
2023-03-01T13:55:19.332Z,97.00
2023-03-01T13:57:54.804Z,96.60
2023-03-01T14:00:35.016Z,96.60
2023-03-01T14:03:06.638Z,96.60
2023-03-01T14:05:37.161Z,96.50
2023-03-01T14:08:06.245Z,96.40
2023-03-01T14:10:42.580Z,96.50
2023-03-01T14:13:31.046Z,96.40
2023-03-01T14:16:13.944Z,96.20
2023-03-01T14:18:49.878Z,96.20
2023-03-01T14:21:19.719Z,96.00
2023-03-01T14:23:48.694Z,96.00
2023-03-01T14:26:23.791Z,95.90
2023-03-01T14:28:52.837Z,95.80
2023-03-01T14:31:52.570Z,95.80
2023-03-01T14:34:23.523Z,95.60
2023-03-01T14:36:53.099Z,95.60
2023-03-01T14:39:26.981Z,95.50
2023-03-01T14:41:56.279Z,95.40
2023-03-01T14:44:26.730Z,95.50
2023-03-01T14:46:58.265Z,95.50
2023-03-01T14:49:31.441Z,95.50
2023-03-01T14:52:06.285Z,95.50
2023-03-01T14:54:43.173Z,95.50
2023-03-01T14:57:17.909Z,95.50
2023-03-01T14:59:46.452Z,95.50
2023-03-01T15:02:20.170Z,95.40
2023-03-01T15:04:50.393Z,95.50
2023-03-01T15:07:20.601Z,95.50
2023-03-01T15:09:49.676Z,95.50
2023-03-01T15:12:37.883Z,95.50
2023-03-01T15:15:38.418Z,95.50
2023-03-01T15:18:16.738Z,95.40
2023-03-01T15:20:45.280Z,95.40
2023-03-01T15:23:25.359Z,95.30
2023-03-01T15:25:58.365Z,95.40
2023-03-01T15:28:29.317Z,95.60
2023-03-01T15:31:01.063Z,95.70
2023-03-01T15:33:35.959Z,95.90
2023-03-01T15:36:06.272Z,96.00
2023-03-01T15:38:41.520Z,96.20
2023-03-01T15:41:26.571Z,96.40
2023-03-01T15:43:56.771Z,96.60
2023-03-01T15:46:28.780Z,96.70
2023-03-01T15:48:59.628Z,96.90
2023-03-01T15:51:36.629Z,97.10
2023-03-01T15:54:12.433Z,97.30
2023-03-01T15:56:40.494Z,97.50
2023-03-01T15:59:14.372Z,97.60
2023-03-01T16:01:42.625Z,97.90
2023-03-01T16:04:13.781Z,98.00
2023-03-01T16:06:41.982Z,98.20
2023-03-01T16:09:13.601Z,98.40
2023-03-01T16:11:43.474Z,98.70
2023-03-01T16:14:11.841Z,98.80
2023-03-01T16:16:40.326Z,99.00
2023-03-01T16:19:08.418Z,99.30
2023-03-01T16:21:37.090Z,99.50
2023-03-01T16:24:05.701Z,99.70
2023-03-01T16:26:35.384Z,99.90
2023-03-01T16:29:03.476Z,99.90
2023-03-01T16:31:34.376Z,99.90
2023-03-01T16:34:03.202Z,99.90
2023-03-01T16:36:31.498Z,99.90
2023-03-01T16:39:01.621Z,99.90
2023-03-01T16:41:30.533Z,99.90
2023-03-01T16:44:00.476Z,99.90
2023-03-01T16:46:30.666Z,99.90
2023-03-01T16:48:59.304Z,99.90
2023-03-01T16:51:27.507Z,99.90
2023-03-01T16:53:55.743Z,99.90
2023-03-01T16:56:23.889Z,99.90
2023-03-01T16:58:52.398Z,99.90
2023-03-01T17:01:25.645Z,99.90
2023-03-01T17:03:54.432Z,99.90
2023-03-01T17:06:25.850Z,99.90
2023-03-01T17:08:54.380Z,99.90
2023-03-01T17:11:22.845Z,99.90
2023-03-01T17:13:51.008Z,99.90
2023-03-01T17:16:22.791Z,99.90
2023-03-01T17:18:51.212Z,99.90
2023-03-01T17:21:19.450Z,99.90
2023-03-01T17:23:50.433Z,99.90
2023-03-01T17:26:18.888Z,99.90
2023-03-01T17:28:52.453Z,99.90
2023-03-01T17:31:22.227Z,99.90
2023-03-01T17:33:50.407Z,99.90
2023-03-01T17:36:18.820Z,99.90
2023-03-01T17:38:47.429Z,99.90
2023-03-01T17:41:17.838Z,99.90
2023-03-01T17:43:46.006Z,99.90
2023-03-01T17:46:14.149Z,99.90
2023-03-01T17:48:43.747Z,99.90
2023-03-01T17:51:13.497Z,99.90
2023-03-01T17:53:41.794Z,99.90
2023-03-01T17:56:10.188Z,99.90
2023-03-01T17:58:39.453Z,99.90
2023-03-01T18:01:12.668Z,99.90
2023-03-01T18:03:40.984Z,99.90
2023-03-01T18:06:15.396Z,99.90
2023-03-01T18:08:45.237Z,99.90
2023-03-01T18:11:13.992Z,99.90
2023-03-01T18:13:42.392Z,99.90
2023-03-01T18:16:12.690Z,99.90
2023-03-01T18:18:41.263Z,99.90
2023-03-01T18:21:09.964Z,99.90
2023-03-01T18:23:40.238Z,99.90
2023-03-01T18:26:10.277Z,99.90
2023-03-01T18:28:39.441Z,99.90
2023-03-01T18:31:12.061Z,99.90
2023-03-01T18:33:41.350Z,99.90
2023-03-01T18:36:20.335Z,99.90
2023-03-01T18:38:50.025Z,99.90
2023-03-01T18:41:18.588Z,99.90
2023-03-01T18:43:46.791Z,99.90
2023-03-01T18:46:15.115Z,99.90
2023-03-01T18:48:43.321Z,99.90
2023-03-01T18:51:14.826Z,99.90
2023-03-01T18:53:43.053Z,99.90
2023-03-01T18:56:13.406Z,99.90
2023-03-01T18:58:43.712Z,99.90
2023-03-01T19:01:15.987Z,99.90
2023-03-01T19:03:44.546Z,99.90
2023-03-01T19:06:12.819Z,99.90
2023-03-01T19:08:42.378Z,99.90
2023-03-01T19:11:12.383Z,99.90
2023-03-01T19:13:41.929Z,99.90
2023-03-01T19:16:12.248Z,99.90
2023-03-01T19:18:42.227Z,99.90
2023-03-01T19:21:12.084Z,99.90
2023-03-01T19:23:40.382Z,99.90
2023-03-01T19:26:10.513Z,99.90
2023-03-01T19:28:40.836Z,99.90
2023-03-01T19:31:10.810Z,99.90
2023-03-01T19:33:40.133Z,99.90
2023-03-01T19:36:13.358Z,99.90
2023-03-01T19:38:43.077Z,99.90
2023-03-01T19:41:14.894Z,99.90
2023-03-01T19:43:47.131Z,99.90
2023-03-01T19:46:16.500Z,99.90
2023-03-01T19:48:45.608Z,99.90
2023-03-01T19:51:14.034Z,99.90
2023-03-01T19:53:42.577Z,99.90
2023-03-01T19:56:11.010Z,99.90
2023-03-01T19:58:40.299Z,99.90
2023-03-01T20:01:17.278Z,99.90
2023-03-01T20:03:45.934Z,99.90
2023-03-01T20:06:16.494Z,99.90
2023-03-01T20:08:45.408Z,99.90
2023-03-01T20:11:15.625Z,99.90
2023-03-01T20:13:44.001Z,99.90
2023-03-01T20:16:12.805Z,99.90
2023-03-01T20:18:43.112Z,99.90
2023-03-01T20:21:21.769Z,99.90
2023-03-01T20:23:52.533Z,99.90
2023-03-01T20:26:20.930Z,99.90
2023-03-01T20:28:50.799Z,99.90
2023-03-01T20:31:21.206Z,99.90
2023-03-01T20:33:51.412Z,99.90
2023-03-01T20:36:19.856Z,99.90
2023-03-01T20:38:47.908Z,99.90
2023-03-01T20:41:16.087Z,99.90
2023-03-01T20:43:44.656Z,99.90
2023-03-01T20:46:15.023Z,99.90
2023-03-01T20:48:44.006Z,99.90
2023-03-01T20:51:14.653Z,99.90
2023-03-01T20:53:42.949Z,99.90
2023-03-01T20:56:17.417Z,99.90
2023-03-01T20:58:45.495Z,99.90
2023-03-01T21:01:18.074Z,99.90
2023-03-01T21:03:46.458Z,99.90
2023-03-01T21:06:15.954Z,99.90
2023-03-01T21:08:44.225Z,99.90
2023-03-01T21:11:12.407Z,99.90
2023-03-01T21:13:41.787Z,99.90
2023-03-01T21:16:13.802Z,99.90
2023-03-01T21:18:42.942Z,99.90
2023-03-01T21:21:13.269Z,99.90
2023-03-01T21:23:44.321Z,99.90
2023-03-01T21:26:14.161Z,99.90
2023-03-01T21:28:43.892Z,99.90
2023-03-01T21:31:14.297Z,99.90
2023-03-01T21:33:45.672Z,99.90
2023-03-01T21:36:14.264Z,99.90
2023-03-01T21:38:46.341Z,99.90
2023-03-01T21:41:16.570Z,99.90
2023-03-01T21:43:47.318Z,99.90
2023-03-01T21:46:17.623Z,99.90
2023-03-01T21:48:46.921Z,99.90
2023-03-01T21:51:16.639Z,99.90
2023-03-01T21:53:46.411Z,99.90
2023-03-01T21:56:17.157Z,99.90
2023-03-01T21:58:45.512Z,99.90
2023-03-01T22:01:16.361Z,99.90
2023-03-01T22:03:48.231Z,99.90
2023-03-01T22:06:19.593Z,99.90
2023-03-01T22:08:51.704Z,99.90
2023-03-01T22:11:21.073Z,99.90
2023-03-01T22:13:52.474Z,99.90
2023-03-01T22:16:22.821Z,99.90
2023-03-01T22:18:51.437Z,99.90
2023-03-01T22:21:20.580Z,99.90
2023-03-01T22:23:50.214Z,99.90
2023-03-01T22:26:29.322Z,99.90
2023-03-01T22:28:59.248Z,99.90
2023-03-01T22:31:28.086Z,99.90
2023-03-01T22:33:57.381Z,99.90
2023-03-01T22:36:25.646Z,99.90
2023-03-01T22:39:00.049Z,99.90
2023-03-01T22:41:29.451Z,99.90
2023-03-01T22:43:57.926Z,99.90
2023-03-01T22:46:27.168Z,99.90
2023-03-01T22:48:55.910Z,99.90
2023-03-01T22:51:25.859Z,99.90
2023-03-01T22:53:55.497Z,99.90
2023-03-01T22:56:26.443Z,99.90
2023-03-01T22:58:54.552Z,99.90
2023-03-01T23:01:24.486Z,99.90
2023-03-01T23:03:52.594Z,99.90
2023-03-01T23:06:22.392Z,99.90
2023-03-01T23:08:51.815Z,99.90
2023-03-01T23:11:23.040Z,99.90
2023-03-01T23:13:51.555Z,99.90
2023-03-01T23:16:19.664Z,99.90
2023-03-01T23:18:47.724Z,99.90
2023-03-01T23:21:17.694Z,99.90
2023-03-01T23:23:47.303Z,99.90
2023-03-01T23:26:15.841Z,99.90
2023-03-01T23:28:45.583Z,99.90
2023-03-01T23:31:15.389Z,99.90
2023-03-01T23:33:45.444Z,99.90
2023-03-01T23:36:19.311Z,99.90
2023-03-01T23:38:48.523Z,99.90
2023-03-01T23:41:19.574Z,99.90
2023-03-01T23:43:51.424Z,99.90
2023-03-01T23:46:21.161Z,99.90
2023-03-01T23:48:49.877Z,99.90
2023-03-01T23:51:19.264Z,99.90
2023-03-01T23:53:54.631Z,99.90
2023-03-01T23:56:26.809Z,99.90
2023-03-01T23:58:57.853Z,99.90
